Time;durP1;ratioP1;P1;durP2;ratioP2;P2;SDS_P1;SDS_P2;PMS_P1;PMS_P2;Temp;Humidity;BMP_temperature;BMP_pressure;BME280_temperature;BME280_humidity;BME280_pressure;Samples;Min_cycle;Max_cycle;Signal;HPM_P1;HPM_P2
2022/08/25 00:01:13;;;;;;;;;;;;;;;19.92;55.52;101239.06;5042202;28;19913;-77
2022/08/25 00:03:38;;;;;;;;;;;;;;;19.90;55.90;101237.47;5041911;28;19925;-76
2022/08/25 00:06:05;;;;;;;;;;;;;;;19.87;56.59;101241.09;5038666;28;20400;-77
2022/08/25 00:08:33;;;;;;;;;;;;;;;19.88;55.88;101237.53;5041212;28;19932;-77
2022/08/25 00:10:59;;;;;;;;;;;;;;;19.87;55.14;101234.97;5035469;28;19939;-77
2022/08/25 00:13:24;;;;;;;;;;;;;;;19.86;54.42;101230.63;5043087;28;19921;-77
2022/08/25 00:15:49;;;;;;;;;;;;;;;19.86;55.09;101228.00;5041551;28;19939;-77
2022/08/25 00:18:14;;;;;;;;;;;;;;;19.87;55.18;101230.56;5038732;28;20454;-77
2022/08/25 00:20:40;;;;;;;;;;;;;;;19.85;53.84;101237.69;5040608;28;19929;-77
2022/08/25 00:23:05;;;;;;;;;;;;;;;19.82;55.03;101229.94;5040749;28;20639;-77
2022/08/25 00:25:31;;;;;;;;;;;;;;;19.80;53.48;101229.16;5034045;28;19917;-76
2022/08/25 00:27:57;;;;;;;;;;;;;;;19.81;54.05;101230.88;5041378;28;19931;-77
2022/08/25 00:30:23;;;;;;;;;;;;;;;19.80;54.53;101231.81;5037737;28;19925;-77
2022/08/25 00:32:48;;;;;;;;;;;;;;;19.76;54.50;101231.09;5034664;28;19929;-77
2022/08/25 00:35:14;;;;;;;;;;;;;;;19.78;54.43;101242.44;5038291;28;19925;-77
2022/08/25 00:37:39;;;;;;;;;;;;;;;19.77;54.59;101239.88;5040293;28;20035;-77
2022/08/25 00:40:05;;;;;;;;;;;;;;;19.75;54.16;101228.56;5034997;28;19925;-77
2022/08/25 00:42:39;;;;;;;;;;;;;;;19.77;53.52;101232.81;5039511;28;19921;-77
2022/08/25 00:45:06;;;;;;;;;;;;;;;19.74;53.51;101234.75;5037980;28;19927;-77
2022/08/25 00:47:31;;;;;;;;;;;;;;;19.74;53.19;101226.84;5038102;28;19971;-77
2022/08/25 00:49:58;;;;;;;;;;;;;;;19.76;53.38;101230.25;5036104;28;20411;-77
2022/08/25 00:52:27;;;;;;;;;;;;;;;19.77;53.22;101229.31;5042885;28;20399;-77
2022/08/25 00:54:52;;;;;;;;;;;;;;;19.79;51.97;101227.44;5035385;28;19928;-77
2022/08/25 00:57:19;;;;;;;;;;;;;;;19.84;51.54;101229.88;5040293;28;19928;-77
2022/08/25 00:59:45;;;;;;;;;;;;;;;19.86;51.01;101228.84;5039090;28;20442;-77
2022/08/25 01:02:12;;;;;;;;;;;;;;;19.87;51.10;101230.56;5039651;28;19929;-77
2022/08/25 01:04:37;;;;;;;;;;;;;;;19.84;51.92;101229.88;5039460;28;19968;-77
2022/08/25 01:07:03;;;;;;;;;;;;;;;19.84;50.83;101230.72;5039674;28;20034;-77
2022/08/25 01:09:31;;;;;;;;;;;;;;;19.84;51.77;101237.78;5038836;28;19921;-77
2022/08/25 01:11:59;;;;;;;;;;;;;;;19.83;52.43;101228.16;5042756;28;19928;-77
2022/08/25 01:14:26;;;;;;;;;;;;;;;19.77;53.31;101235.44;5037668;28;19921;-77
2022/08/25 01:16:52;;;;;;;;;;;;;;;19.71;53.87;101229.63;5024792;28;19956;-77
2022/08/25 01:19:18;;;;;;;;;;;;;;;19.69;53.73;101226.25;5036380;28;19967;-77
2022/08/25 01:21:50;;;;;;;;;;;;;;;19.69;52.62;101231.50;5044927;28;19921;-77
2022/08/25 01:24:48;;;;;;;;;;;;;;;19.67;53.54;101233.34;5021423;28;19928;-77
2022/08/25 01:27:14;;;;;;;;;;;;;;;19.64;53.72;101241.44;4994584;28;19974;-77
2022/08/25 01:29:39;;;;;;;;;;;;;;;19.60;53.62;101235.47;5037727;28;19929;-77
2022/08/25 01:32:06;;;;;;;;;;;;;;;19.57;53.47;101233.00;5037591;28;19968;-77
2022/08/25 01:34:34;;;;;;;;;;;;;;;19.55;53.59;101236.66;5022708;28;19917;-77
2022/08/25 01:37:03;;;;;;;;;;;;;;;19.54;53.53;101237.56;5017268;28;19964;-77
2022/08/25 01:39:29;;;;;;;;;;;;;;;19.55;53.80;101236.66;5036502;28;20566;-77
2022/08/25 01:42:10;;;;;;;;;;;;;;;19.52;53.98;101239.44;5022256;28;20366;-77
2022/08/25 01:44:42;;;;;;;;;;;;;;;19.51;53.53;101235.94;5042844;28;20294;-77
2022/08/25 01:47:08;;;;;;;;;;;;;;;19.51;53.82;101232.44;5041311;28;19932;-79
2022/08/25 01:49:34;;;;;;;;;;;;;;;19.49;53.66;101231.69;5043950;28;19923;-79
2022/08/25 01:52:04;;;;;;;;;;;;;;;19.46;53.70;101231.84;5032751;28;20020;-79
2022/08/25 01:54:29;;;;;;;;;;;;;;;19.45;53.32;101224.84;5042679;28;20286;-80
2022/08/25 01:56:54;;;;;;;;;;;;;;;19.44;52.83;101229.25;5044968;28;19951;-79
2022/08/25 01:59:20;;;;;;;;;;;;;;;19.42;53.46;101232.91;5039636;28;20381;-79
2022/08/25 02:01:45;;;;;;;;;;;;;;;19.40;54.06;101235.59;5037324;28;20544;-79
2022/08/25 02:04:11;;;;;;;;;;;;;;;19.39;53.77;101236.56;5043004;28;19966;-79
2022/08/25 02:06:37;;;;;;;;;;;;;;;19.34;53.21;101235.94;5036071;28;20305;-79
2022/08/25 02:09:07;;;;;;;;;;;;;;;19.35;53.58;101231.50;5033303;28;19939;-79
2022/08/25 02:11:34;;;;;;;;;;;;;;;19.33;53.30;101242.13;5044011;28;19928;-79
2022/08/25 02:14:00;;;;;;;;;;;;;;;19.32;53.51;101245.69;5040547;28;19929;-79
2022/08/25 02:16:29;;;;;;;;;;;;;;;19.33;53.99;101242.13;5043362;28;19924;-79
2022/08/25 02:18:55;;;;;;;;;;;;;;;19.34;54.70;101241.22;5040217;28;19929;-79
2022/08/25 02:21:21;;;;;;;;;;;;;;;19.33;54.43;101246.53;5038791;28;19932;-79
2022/08/25 02:23:46;;;;;;;;;;;;;;;19.31;53.90;101249.25;5039506;28;19928;-79
2022/08/25 02:26:15;;;;;;;;;;;;;;;19.28;53.98;101243.25;5034255;28;19932;-79
2022/08/25 02:28:40;;;;;;;;;;;;;;;19.29;52.98;101244.97;5039755;28;19924;-79
2022/08/25 02:31:06;;;;;;;;;;;;;;;19.29;52.19;101243.19;5041154;28;19924;-79
2022/08/25 02:33:31;;;;;;;;;;;;;;;19.34;52.82;101241.22;5025627;28;20428;-79
2022/08/25 02:35:57;;;;;;;;;;;;;;;19.32;52.93;101242.19;5036081;28;20394;-79
2022/08/25 02:38:23;;;;;;;;;;;;;;;19.29;53.06;101250.25;5019484;28;19928;-79
2022/08/25 02:40:50;;;;;;;;;;;;;;;19.28;53.05;101248.53;5041614;28;20416;-79
2022/08/25 02:43:15;;;;;;;;;;;;;;;19.28;52.92;101248.53;5043309;28;20457;-79
2022/08/25 02:45:40;;;;;;;;;;;;;;;19.27;52.98;101245.03;5040931;28;20568;-79
2022/08/25 02:48:06;;;;;;;;;;;;;;;19.25;53.80;101246.91;5035997;28;19947;-79
2022/08/25 02:50:32;;;;;;;;;;;;;;;19.25;53.51;101236.38;5038911;28;20309;-79
2022/08/25 02:52:57;;;;;;;;;;;;;;;19.23;53.72;101238.19;5044725;28;19944;-79
2022/08/25 02:55:22;;;;;;;;;;;;;;;19.20;53.66;101236.56;5041414;28;19952;-79
2022/08/25 02:57:48;;;;;;;;;;;;;;;19.20;53.48;101228.66;5041284;28;20336;-79
2022/08/25 03:00:16;;;;;;;;;;;;;;;19.21;53.40;101226.91;5037252;28;20368;-79
2022/08/25 03:02:42;;;;;;;;;;;;;;;19.18;53.06;101225.28;5037996;28;20394;-79
2022/08/25 03:05:08;;;;;;;;;;;;;;;19.17;52.71;101223.56;5044536;28;19925;-78
2022/08/25 03:07:34;;;;;;;;;;;;;;;19.14;53.10;101221.06;5043313;28;19967;-77
2022/08/25 03:10:04;;;;;;;;;;;;;;;19.15;53.35;101219.28;5041374;28;19928;-77
2022/08/25 03:12:29;;;;;;;;;;;;;;;19.11;53.61;101215.94;5033223;28;20405;-77
2022/08/25 03:14:55;;;;;;;;;;;;;;;19.13;53.25;101211.44;5040897;28;20412;-77
2022/08/25 03:17:20;;;;;;;;;;;;;;;19.12;53.64;101204.50;5037286;28;19940;-76
2022/08/25 03:19:45;;;;;;;;;;;;;;;19.11;53.45;101202.78;5013401;28;19925;-76
2022/08/25 03:22:11;;;;;;;;;;;;;;;19.10;53.44;101206.38;5042531;28;19968;-76
2022/08/25 03:24:36;;;;;;;;;;;;;;;19.11;53.35;101197.53;5037205;28;19951;-77
2022/08/25 03:27:01;;;;;;;;;;;;;;;19.08;53.01;101204.72;5036496;28;19932;-77
2022/08/25 03:29:29;;;;;;;;;;;;;;;19.07;53.20;101200.41;5034932;28;19971;-77
2022/08/25 03:31:56;;;;;;;;;;;;;;;19.07;53.34;101206.53;5033199;28;19921;-77
2022/08/25 03:34:23;;;;;;;;;;;;;;;19.04;53.07;101198.78;5038747;28;19933;-77
2022/08/25 03:36:49;;;;;;;;;;;;;;;19.05;53.43;101202.22;5034828;28;19920;-76
2022/08/25 03:39:16;;;;;;;;;;;;;;;19.03;53.39;101202.31;5025868;28;19940;-76
2022/08/25 03:41:42;;;;;;;;;;;;;;;19.02;54.02;101202.38;5042480;28;19924;-76
2022/08/25 03:44:08;;;;;;;;;;;;;;;19.00;53.98;101204.25;5043504;28;19931;-77
2022/08/25 03:46:36;;;;;;;;;;;;;;;19.00;53.79;101196.34;5042157;28;19967;-77
2022/08/25 03:49:03;;;;;;;;;;;;;;;18.99;53.82;101192.84;5036071;28;19921;-77
2022/08/25 03:51:34;;;;;;;;;;;;;;;18.98;53.88;101190.31;5035174;28;19970;-77
2022/08/25 03:54:00;;;;;;;;;;;;;;;18.99;53.50;101186.72;5023610;28;19935;-77
2022/08/25 03:56:28;;;;;;;;;;;;;;;18.99;53.80;101187.59;5025288;28;19955;-77
2022/08/25 03:58:54;;;;;;;;;;;;;;;18.96;54.18;101182.47;5038505;28;19924;-77
2022/08/25 04:01:20;;;;;;;;;;;;;;;18.95;53.96;101179.94;5040399;28;20396;-76
2022/08/25 04:03:45;;;;;;;;;;;;;;;18.93;54.26;101173.88;5041408;28;19967;-77
2022/08/25 04:06:11;;;;;;;;;;;;;;;18.94;53.67;101170.31;5047511;28;19927;-77
2022/08/25 04:08:37;;;;;;;;;;;;;;;18.93;54.17;101176.50;5037905;28;19925;-77
2022/08/25 04:11:06;;;;;;;;;;;;;;;18.92;53.85;101180.09;5034679;28;19921;-77
2022/08/25 04:13:32;;;;;;;;;;;;;;;18.91;54.25;101181.84;5039602;28;19925;-77
2022/08/25 04:15:57;;;;;;;;;;;;;;;18.88;54.13;101184.63;5044063;28;20305;-77
2022/08/25 04:18:22;;;;;;;;;;;;;;;18.88;54.29;101179.38;5033752;28;19933;-77
2022/08/25 04:20:47;;;;;;;;;;;;;;;18.88;53.70;101178.50;5041169;28;21065;-77
2022/08/25 04:23:13;;;;;;;;;;;;;;;18.83;53.58;101178.75;5035078;28;20008;-77
2022/08/25 04:25:41;;;;;;;;;;;;;;;18.82;54.13;101187.56;5037436;28;20015;-76
2022/08/25 04:28:06;;;;;;;;;;;;;;;18.80;54.29;101189.44;5041924;28;20301;-76
2022/08/25 04:30:32;;;;;;;;;;;;;;;18.79;54.64;101179.81;5035142;28;19921;-77
2022/08/25 04:32:57;;;;;;;;;;;;;;;18.79;54.64;101182.44;5044646;28;19920;-76
2022/08/25 04:35:23;;;;;;;;;;;;;;;18.81;54.59;101179.75;5041705;28;19925;-77
2022/08/25 04:37:48;;;;;;;;;;;;;;;18.82;54.99;101179.66;5045191;28;19925;-76
2022/08/25 04:40:13;;;;;;;;;;;;;;;18.79;54.88;101176.31;5036529;28;19925;-76
2022/08/25 04:42:39;;;;;;;;;;;;;;;18.80;54.95;101185.94;5039301;28;20495;-77
2022/08/25 04:45:04;;;;;;;;;;;;;;;18.82;54.84;101184.94;5022433;28;19932;-77
2022/08/25 04:47:30;;;;;;;;;;;;;;;18.77;54.95;101186.09;5037673;28;19932;-77
2022/08/25 04:49:55;;;;;;;;;;;;;;;18.76;54.91;101179.97;5038813;28;20309;-77
2022/08/25 04:52:20;;;;;;;;;;;;;;;18.79;54.83;101182.44;5015942;28;19929;-76
2022/08/25 04:54:46;;;;;;;;;;;;;;;18.78;54.83;101180.72;5036612;28;19924;-76
2022/08/25 04:57:11;;;;;;;;;;;;;;;18.77;55.08;101178.19;5038764;28;19968;-76
2022/08/25 04:59:37;;;;;;;;;;;;;;;18.79;55.52;101179.81;5037796;28;20603;-77
2022/08/25 05:02:04;;;;;;;;;;;;;;;18.81;55.23;101177.13;5035800;28;19913;-77
2022/08/25 05:04:30;;;;;;;;;;;;;;;18.80;55.28;101178.03;5037811;28;20405;-77
2022/08/25 05:06:56;;;;;;;;;;;;;;;18.78;55.78;101180.72;5040128;28;19921;-77
2022/08/25 05:09:21;;;;;;;;;;;;;;;18.77;55.45;101180.81;5033366;28;20463;-77
2022/08/25 05:11:46;;;;;;;;;;;;;;;18.81;55.38;101182.38;5033899;28;20004;-75
2022/08/25 05:14:14;;;;;;;;;;;;;;;18.81;55.58;101177.13;5035615;28;19932;-76
2022/08/25 05:16:39;;;;;;;;;;;;;;;18.82;55.27;101182.31;5023923;28;19925;-76
2022/08/25 05:19:06;;;;;;;;;;;;;;;18.86;54.93;101175.97;5038605;28;20406;-76
2022/08/25 05:21:32;;;;;;;;;;;;;;;18.87;55.33;101176.84;5038389;28;19924;-76
2022/08/25 05:23:58;;;;;;;;;;;;;;;18.84;55.11;101172.53;5040658;28;19921;-76
2022/08/25 05:26:25;;;;;;;;;;;;;;;18.88;55.51;101168.84;5040551;28;19927;-76
2022/08/25 05:28:51;;;;;;;;;;;;;;;18.85;55.83;101171.63;5039278;28;20007;-76
2022/08/25 05:31:17;;;;;;;;;;;;;;;18.85;56.03;101166.34;5039975;28;19917;-77
2022/08/25 05:33:43;;;;;;;;;;;;;;;18.85;56.06;101169.00;5040716;28;19917;-76
2022/08/25 05:36:09;;;;;;;;;;;;;;;18.91;55.81;101173.09;5040218;28;19924;-77
2022/08/25 05:38:35;;;;;;;;;;;;;;;18.92;56.53;101162.50;5035136;28;19932;-76
2022/08/25 05:41:02;;;;;;;;;;;;;;;18.91;57.01;101166.06;5041803;28;19924;-77
2022/08/25 05:43:28;;;;;;;;;;;;;;;18.90;56.74;101171.38;5041999;28;19984;-77
2022/08/25 05:45:54;;;;;;;;;;;;;;;18.92;57.07;101165.16;5044666;28;20012;-77
2022/08/25 05:48:19;;;;;;;;;;;;;;;18.95;56.61;101162.34;5036004;28;19933;-77
2022/08/25 05:50:55;;;;;;;;;;;;;;;18.99;57.01;101156.00;5048126;28;20409;-76
2022/08/25 05:53:21;;;;;;;;;;;;;;;18.98;57.40;101153.44;5047745;28;20588;-77
2022/08/25 05:55:47;;;;;;;;;;;;;;;19.00;57.17;101151.59;5039717;28;20196;-79
2022/08/25 05:58:12;;;;;;;;;;;;;;;19.02;57.02;101149.72;5039958;28;19924;-79
2022/08/25 06:00:38;;;;;;;;;;;;;;;19.04;57.58;101147.88;5035417;28;19928;-80
2022/08/25 06:03:04;;;;;;;;;;;;;;;19.04;57.63;101145.25;5038607;28;19928;-79
2022/08/25 06:05:31;;;;;;;;;;;;;;;19.04;58.35;101148.75;5038235;28;19921;-77
2022/08/25 06:07:56;;;;;;;;;;;;;;;19.07;57.68;101148.59;5038250;28;19925;-77
2022/08/25 06:10:22;;;;;;;;;;;;;;;19.10;57.33;101144.94;5038601;28;19947;-77
2022/08/25 06:12:47;;;;;;;;;;;;;;;19.13;57.51;101158.78;5042371;28;19968;-77
2022/08/25 06:15:19;;;;;;;;;;;;;;;19.15;57.16;101156.09;5043836;28;19920;-77
2022/08/25 06:17:44;;;;;;;;;;;;;;;19.16;56.58;101150.72;5036936;28;19928;-76
2022/08/25 06:20:15;;;;;;;;;;;;;;;19.17;57.97;101156.84;5044132;28;19931;-77
2022/08/25 06:22:40;;;;;;;;;;;;;;;19.22;56.37;101160.13;5044548;28;20461;-77
2022/08/25 06:25:06;;;;;;;;;;;;;;;19.28;55.98;101151.94;5044157;28;19924;-76
2022/08/25 06:27:33;;;;;;;;;;;;;;;19.27;56.25;101152.84;5037267;28;20074;-77
2022/08/25 06:30:02;;;;;;;;;;;;;;;19.29;55.90;101152.78;5041126;28;19921;-77
2022/08/25 06:32:29;;;;;;;;;;;;;;;19.32;55.51;101161.38;5042474;28;19921;-77
2022/08/25 06:34:54;;;;;;;;;;;;;;;19.34;55.81;101163.97;5039922;28;19920;-77
2022/08/25 06:37:20;;;;;;;;;;;;;;;19.36;55.06;101170.84;5039865;28;19921;-77
2022/08/25 06:39:45;;;;;;;;;;;;;;;19.41;55.09;101173.22;5042537;28;20017;-77
2022/08/25 06:42:11;;;;;;;;;;;;;;;19.42;55.29;101177.56;5043774;28;20042;-77
2022/08/25 06:44:36;;;;;;;;;;;;;;;19.42;55.97;101173.16;5039967;28;19928;-77
2022/08/25 06:47:02;;;;;;;;;;;;;;;19.43;55.59;101169.56;5040298;28;20332;-77
2022/08/25 06:49:27;;;;;;;;;;;;;;;19.48;54.82;101167.59;5040565;28;19971;-77
2022/08/25 06:51:53;;;;;;;;;;;;;;;19.48;56.35;101175.50;5022481;28;19925;-77
2022/08/25 06:54:18;;;;;;;;;;;;;;;19.49;55.65;101173.72;5040573;28;19928;-77
2022/08/25 06:56:43;;;;;;;;;;;;;;;19.51;59.29;101185.88;5043021;28;19920;-77
2022/08/25 06:59:09;;;;;;;;;;;;;;;19.51;56.79;101177.09;5041455;28;20361;-77
2022/08/25 07:01:34;;;;;;;;;;;;;;;19.55;55.15;101176.84;5036513;28;19975;-77
2022/08/25 07:04:01;;;;;;;;;;;;;;;19.58;54.99;101170.59;5041550;28;20039;-77
2022/08/25 07:06:27;;;;;;;;;;;;;;;19.57;55.87;101161.84;5048193;28;19925;-77
2022/08/25 07:08:52;;;;;;;;;;;;;;;19.59;55.40;101161.75;5029865;28;19924;-77
2022/08/25 07:11:20;;;;;;;;;;;;;;;19.60;55.66;101171.38;5041329;28;19931;-77
2022/08/25 07:13:46;;;;;;;;;;;;;;;19.64;55.51;101171.13;5025876;28;19932;-77
2022/08/25 07:16:11;;;;;;;;;;;;;;;19.65;55.39;101159.66;5043051;28;19916;-77
2022/08/25 07:18:37;;;;;;;;;;;;;;;19.66;55.34;101155.22;5042565;28;19924;-77
2022/08/25 07:21:02;;;;;;;;;;;;;;;19.64;57.09;101160.56;5038671;28;19918;-77
2022/08/25 07:23:28;;;;;;;;;;;;;;;19.68;55.84;101153.34;5042050;28;19939;-77
2022/08/25 07:25:54;;;;;;;;;;;;;;;19.68;55.93;101158.63;5051484;28;19923;-77
2022/08/25 07:28:20;;;;;;;;;;;;;;;19.72;56.17;101158.41;5048438;28;20313;-77
2022/08/25 07:30:45;;;;;;;;;;;;;;;19.72;55.43;101154.91;5035920;28;20036;-77
2022/08/25 07:33:11;;;;;;;;;;;;;;;19.78;55.13;101165.13;5044189;28;20047;-77
2022/08/25 07:35:37;;;;;;;;;;;;;;;19.79;55.44;101166.81;5044803;28;19966;-77
2022/08/25 07:38:02;;;;;;;;;;;;;;;19.77;55.42;101156.38;5051591;28;19925;-77
2022/08/25 07:40:30;;;;;;;;;;;;;;;19.78;56.34;101160.72;5037753;28;20382;-77
2022/08/25 07:42:57;;;;;;;;;;;;;;;19.84;56.16;101164.81;5052304;28;19928;-77
2022/08/25 07:45:29;;;;;;;;;;;;;;;19.90;55.79;101161.84;5050490;28;19920;-77
2022/08/25 07:47:58;;;;;;;;;;;;;;;19.85;56.05;101163.84;5046648;28;20381;-77
2022/08/25 07:50:24;;;;;;;;;;;;;;;19.86;56.46;101162.94;5041844;28;19921;-77
2022/08/25 07:52:50;;;;;;;;;;;;;;;19.87;57.41;101162.00;5034596;28;19932;-77
2022/08/25 07:55:15;;;;;;;;;;;;;;;19.82;58.44;101165.84;5047492;28;20393;-77
2022/08/25 07:57:41;;;;;;;;;;;;;;;19.86;57.85;101162.06;5039355;28;20019;-77
2022/08/25 08:00:07;;;;;;;;;;;;;;;19.97;57.53;101154.44;5033948;28;20016;-76
2022/08/25 08:02:32;;;;;;;;;;;;;;;19.95;57.59;101157.16;5041756;28;20301;-77
2022/08/25 08:04:58;;;;;;;;;;;;;;;20.04;57.24;101154.03;5055386;28;19916;-77
2022/08/25 08:07:25;;;;;;;;;;;;;;;19.99;57.58;101155.22;5044644;28;19917;-77
2022/08/25 08:09:50;;;;;;;;;;;;;;;19.95;59.73;101154.53;5032942;28;20003;-77
2022/08/25 08:12:16;;;;;;;;;;;;;;;20.03;57.90;101154.97;5043903;28;20020;-77
2022/08/25 08:14:41;;;;;;;;;;;;;;;20.01;60.32;101153.34;5047201;28;20278;-77
2022/08/25 08:17:08;;;;;;;;;;;;;;;20.01;57.82;101151.56;5038787;28;20353;-77
2022/08/25 08:19:34;;;;;;;;;;;;;;;20.01;58.38;101151.56;5036726;28;19936;-77
2022/08/25 08:21:59;;;;;;;;;;;;;;;19.98;58.94;101143.81;5018467;28;19928;-77
2022/08/25 08:24:25;;;;;;;;;;;;;;;20.03;59.14;101138.28;5045463;28;19974;-77
2022/08/25 08:26:50;;;;;;;;;;;;;;;19.94;59.68;101141.41;5036155;28;20305;-77
2022/08/25 08:29:15;;;;;;;;;;;;;;;20.02;61.29;101137.47;5045554;28;19921;-77
2022/08/25 08:31:41;;;;;;;;;;;;;;;19.95;61.38;101130.81;5057831;28;19936;-77
2022/08/25 08:34:06;;;;;;;;;;;;;;;20.03;61.49;101125.94;5039711;28;20011;-77
2022/08/25 08:36:31;;;;;;;;;;;;;;;19.92;61.43;101123.06;5036428;28;19921;-77
2022/08/25 08:38:57;;;;;;;;;;;;;;;20.06;59.22;101111.75;5044932;28;19930;-77
2022/08/25 08:44:32;;;;;;;;;;;;;;;20.14;58.94;101110.44;5010117;28;19921;-77
2022/08/25 08:46:58;;;;;;;;;;;;;;;20.02;61.71;101120.78;5040392;28;19917;-77
2022/08/25 08:49:32;;;;;;;;;;;;;;;20.08;60.86;101123.13;5025423;28;19982;-77
2022/08/25 08:52:00;;;;;;;;;;;;;;;20.11;60.39;101109.75;5037403;28;19924;-77
2022/08/25 08:54:28;;;;;;;;;;;;;;;20.14;61.21;101105.19;5046884;28;19928;-77
2022/08/25 08:57:23;;;;;;;;;;;;;;;20.23;60.11;101109.09;5040635;28;19924;-77
2022/08/25 08:59:50;;;;;;;;;;;;;;;20.12;61.52;101114.94;5028159;28;19929;-77
2022/08/25 09:02:24;;;;;;;;;;;;;;;20.28;59.25;101099.97;5030725;28;19920;-77
2022/08/25 09:05:01;;;;;;;;;;;;;;;20.37;58.70;101097.75;5048702;28;20672;-77
2022/08/25 09:07:46;;;;;;;;;;;;;;;20.22;60.68;101104.75;5060539;28;20025;-76
2022/08/25 09:10:11;;;;;;;;;;;;;;;20.22;60.44;101095.03;5041529;28;19921;-77
2022/08/25 09:12:49;;;;;;;;;;;;;;;20.12;61.71;101096.47;5044518;28;19928;-77
2022/08/25 09:15:17;;;;;;;;;;;;;;;20.04;62.29;101089.88;5038997;28;19925;-77
2022/08/25 09:17:55;;;;;;;;;;;;;;;20.02;61.94;101086.50;5041026;28;19924;-77
2022/08/25 09:20:33;;;;;;;;;;;;;;;20.31;60.28;101085.75;5032935;28;20789;-77
2022/08/25 09:23:09;;;;;;;;;;;;;;;20.21;60.04;101081.91;5044486;28;19912;-77
2022/08/25 09:25:44;;;;;;;;;;;;;;;20.20;61.74;101086.34;5040181;28;19916;-77
2022/08/25 09:28:29;;;;;;;;;;;;;;;20.23;61.58;101085.34;5050323;28;19929;-77
2022/08/25 09:31:13;;;;;;;;;;;;;;;20.45;58.88;101069.13;5044848;28;19921;-77
2022/08/25 09:33:38;;;;;;;;;;;;;;;20.21;61.79;101071.38;5040366;28;20588;-77
2022/08/25 09:36:04;;;;;;;;;;;;;;;20.39;59.40;101064.19;5037864;28;19925;-77
2022/08/25 09:38:30;;;;;;;;;;;;;;;20.26;59.65;101058.78;5031039;28;19941;-77
2022/08/25 09:40:58;;;;;;;;;;;;;;;20.11;61.48;101064.94;5003613;28;19930;-77
2022/08/25 09:43:27;;;;;;;;;;;;;;;20.06;62.47;101057.22;5019118;28;19917;-77
2022/08/25 09:45:58;;;;;;;;;;;;;;;20.20;60.78;101059.97;5025392;28;19932;-77
2022/08/25 09:48:41;;;;;;;;;;;;;;;20.22;60.10;101057.25;5019451;28;19953;-77
2022/08/25 09:51:25;;;;;;;;;;;;;;;20.19;59.81;101053.00;5023835;28;19921;-77
2022/08/25 09:53:53;;;;;;;;;;;;;;;20.34;59.82;101052.13;5033151;28;20458;-77
2022/08/25 09:56:20;;;;;;;;;;;;;;;20.22;60.68;101047.56;5041759;28;20292;-77
2022/08/25 09:58:46;;;;;;;;;;;;;;;20.34;59.73;101038.09;5039596;28;19928;-77
2022/08/25 10:01:17;;;;;;;;;;;;;;;20.10;62.45;101042.97;5032231;28;19920;-77
2022/08/25 10:04:12;;;;;;;;;;;;;;;20.37;60.71;101042.34;5042970;28;19927;-77
2022/08/25 10:06:45;;;;;;;;;;;;;;;20.13;62.45;101048.06;5024580;28;19992;-77
2022/08/25 10:09:20;;;;;;;;;;;;;;;20.26;60.43;101030.59;5041113;28;19921;-77
2022/08/25 10:11:47;;;;;;;;;;;;;;;20.19;62.14;101045.09;5044570;28;19921;-77
2022/08/25 10:14:24;;;;;;;;;;;;;;;20.37;59.58;101032.63;5025498;28;19925;-77
2022/08/25 10:16:52;;;;;;;;;;;;;;;20.25;60.55;101028.91;5045284;28;19921;-77
2022/08/25 10:19:20;;;;;;;;;;;;;;;20.21;61.13;101037.06;5052938;28;20367;-78
2022/08/25 10:22:03;;;;;;;;;;;;;;;20.13;62.93;101039.31;5020300;28;19960;-77
2022/08/25 10:24:28;;;;;;;;;;;;;;;20.16;63.64;101028.59;5018101;28;19936;-77
2022/08/25 10:26:57;;;;;;;;;;;;;;;20.30;60.14;101021.56;5015453;28;19929;-77
2022/08/25 10:29:32;;;;;;;;;;;;;;;20.35;61.98;101024.78;5017434;28;19930;-77
2022/08/25 10:32:08;;;;;;;;;;;;;;;20.43;59.42;101020.88;5030300;28;19976;-77
2022/08/25 10:34:41;;;;;;;;;;;;;;;20.41;59.77;101014.84;5022177;28;19960;-77
2022/08/25 10:37:13;;;;;;;;;;;;;;;20.39;62.35;101016.69;5019267;28;20469;-77
2022/08/25 10:39:40;;;;;;;;;;;;;;;20.69;57.88;101014.91;5021240;28;20382;-77
2022/08/25 10:42:05;;;;;;;;;;;;;;;20.83;56.18;101010.53;5024841;28;20382;-77
2022/08/25 10:47:37;;;;;;;;;;;;;;;20.59;59.92;101003.22;5028381;28;19978;-77
2022/08/25 10:50:09;;;;;;;;;;;;;;;20.33;63.15;100999.44;5040770;28;19925;-77
2022/08/25 10:52:38;;;;;;;;;;;;;;;20.50;62.00;100991.38;5037878;28;19967;-77
2022/08/25 10:55:07;;;;;;;;;;;;;;;20.36;63.15;100999.25;5022984;28;20534;-77
2022/08/25 10:57:38;;;;;;;;;;;;;;;20.57;60.96;100990.09;5022332;28;20348;-77
2022/08/25 11:00:08;;;;;;;;;;;;;;;20.31;63.45;100993.41;5017810;28;20398;-77
2022/08/25 11:02:47;;;;;;;;;;;;;;;20.33;60.52;100988.88;5020596;28;19936;-77
2022/08/25 11:05:21;;;;;;;;;;;;;;;20.31;63.70;100982.84;5008709;28;20713;-77
2022/08/25 11:07:48;;;;;;;;;;;;;;;20.91;55.70;100974.94;5038859;28;19982;-77
2022/08/25 11:10:32;;;;;;;;;;;;;;;20.47;61.05;100981.00;5035990;28;19952;-77
2022/08/25 11:12:59;;;;;;;;;;;;;;;20.30;63.81;100979.38;5024443;28;20016;-77
2022/08/25 11:15:29;;;;;;;;;;;;;;;20.32;63.80;100979.28;5016454;28;19928;-77
2022/08/25 11:18:01;;;;;;;;;;;;;;;21.01;54.83;100963.69;5017173;28;20031;-77
2022/08/25 11:20:32;;;;;;;;;;;;;;;20.47;63.33;100978.38;5015332;28;19932;-77
2022/08/25 11:23:19;;;;;;;;;;;;;;;20.54;63.06;100965.66;5013628;28;22133;-77
2022/08/25 11:25:49;;;;;;;;;;;;;;;20.39;64.42;100969.22;4998905;28;19940;-77
2022/08/25 11:28:21;;;;;;;;;;;;;;;20.87;56.19;100961.06;5001508;28;20294;-77
2022/08/25 11:30:48;;;;;;;;;;;;;;;20.56;63.16;100967.28;5020215;28;19925;-78
2022/08/25 11:33:15;;;;;;;;;;;;;;;20.42;64.16;100963.75;5021972;28;20024;-77
2022/08/25 11:35:52;;;;;;;;;;;;;;;20.61;60.21;100959.09;5024812;28;21689;-77
2022/08/25 11:38:27;;;;;;;;;;;;;;;21.08;54.54;100961.53;5021840;28;19929;-77
2022/08/25 11:41:08;;;;;;;;;;;;;;;20.78;60.27;100959.78;5022785;28;19913;-77
2022/08/25 11:43:52;;;;;;;;;;;;;;;20.49;63.80;100955.41;5015668;28;19917;-77
2022/08/25 11:46:25;;;;;;;;;;;;;;;20.45;63.38;100953.03;5021918;28;19967;-77
2022/08/25 11:49:09;;;;;;;;;;;;;;;20.50;60.20;100948.34;5015968;28;19948;-77
2022/08/25 11:51:46;;;;;;;;;;;;;;;20.44;63.87;100951.34;5014424;28;19925;-77
2022/08/25 11:54:29;;;;;;;;;;;;;;;20.39;64.40;100946.31;5032680;28;20565;-77
2022/08/25 11:56:57;;;;;;;;;;;;;;;20.37;64.42;100945.56;5019221;28;19921;-77
2022/08/25 11:59:41;;;;;;;;;;;;;;;20.33;64.81;100942.25;5023603;28;19924;-77
2022/08/25 12:02:07;;;;;;;;;;;;;;;20.38;64.43;100936.72;5038735;28;19932;-77
2022/08/25 12:04:38;;;;;;;;;;;;;;;20.39;64.42;100927.00;5042395;28;19920;-77
2022/08/25 12:07:10;;;;;;;;;;;;;;;20.33;64.74;100934.34;5012426;28;20306;-77
2022/08/25 12:09:47;;;;;;;;;;;;;;;20.47;63.79;100935.31;5043001;28;20609;-77
2022/08/25 12:12:35;;;;;;;;;;;;;;;20.41;60.69;100918.06;5041949;28;19944;-77
2022/08/25 12:15:19;;;;;;;;;;;;;;;20.47;64.22;100927.41;5040594;28;20352;-77
2022/08/25 12:18:05;;;;;;;;;;;;;;;20.90;54.41;100913.34;5048993;28;19935;-77
2022/08/25 12:20:48;;;;;;;;;;;;;;;20.70;60.91;100925.09;5046396;28;19936;-77
2022/08/25 12:23:14;;;;;;;;;;;;;;;20.87;55.75;100908.25;5042357;28;20016;-77
2022/08/25 12:25:44;;;;;;;;;;;;;;;20.61;63.00;100914.22;5044717;28;20019;-77
2022/08/25 12:28:23;;;;;;;;;;;;;;;20.45;64.10;100913.44;5044368;28;19921;-77
2022/08/25 12:31:00;;;;;;;;;;;;;;;20.68;63.02;100913.75;5041089;28;20270;-77
2022/08/25 12:33:40;;;;;;;;;;;;;;;20.71;62.20;100910.06;5050759;28;19932;-77
2022/08/25 12:36:07;;;;;;;;;;;;;;;20.94;58.95;100912.22;5025412;28;20015;-77
2022/08/25 12:38:42;;;;;;;;;;;;;;;20.60;62.95;100918.66;5041634;28;20374;-77
2022/08/25 12:41:15;;;;;;;;;;;;;;;20.56;62.88;100911.84;5034099;28;20366;-77
2022/08/25 12:43:44;;;;;;;;;;;;;;;20.50;63.54;100903.47;5025126;28;19925;-77
2022/08/25 12:46:22;;;;;;;;;;;;;;;20.46;63.69;100899.31;5039293;28;19932;-77
2022/08/25 12:48:54;;;;;;;;;;;;;;;20.54;63.17;100907.59;5037259;28;19985;-77